Time;durP1;ratioP1;P1;durP2;ratioP2;P2;SDS_P1;SDS_P2;PMS_P1;PMS_P2;Temp;Humidity;BMP_temperature;BMP_pressure;BME280_temperature;BME280_humidity;BME280_pressure;Samples;Min_cycle;Max_cycle;Signal;HPM_P1;HPM_P2
2021/06/04 00:00:20;;;;;;;;;;;;;;;21.94;36.72;100937.66;5350094;26;33841;-90
2021/06/04 00:02:48;;;;;;;;;;;;;;;22.26;36.12;100932.19;5357332;26;32922;-92
2021/06/04 00:05:16;;;;;;;;;;;;;;;21.92;36.87;100938.69;5343069;26;34099;-92
2021/06/04 00:07:44;;;;;;;;;;;;;;;22.55;35.57;100934.03;5362416;26;34093;-91
2021/06/04 00:10:17;;;;;;;;;;;;;;;22.15;36.36;100937.28;5344532;26;34050;-92
2021/06/04 00:12:50;;;;;;;;;;;;;;;22.16;36.31;100931.03;5346174;26;32146;-91
2021/06/04 00:15:21;;;;;;;;;;;;;;;22.34;35.84;100935.22;5364167;26;34624;-90
2021/06/04 00:17:48;;;;;;;;;;;;;;;21.90;36.70;100933.47;5363998;26;33894;-92
2021/06/04 00:20:21;;;;;;;;;;;;;;;21.97;36.57;100933.97;5342891;26;34264;-91
2021/06/04 00:22:49;;;;;;;;;;;;;;;21.85;36.79;100939.03;5350917;26;33759;-91
2021/06/04 00:25:17;;;;;;;;;;;;;;;22.18;36.12;100937.97;5332376;26;32684;-91
2021/06/04 00:27:45;;;;;;;;;;;;;;;21.28;37.80;100931.69;5350376;26;33887;-91
2021/06/04 00:30:14;;;;;;;;;;;;;;;21.63;37.05;100935.94;5332268;26;33208;-90
2021/06/04 00:32:42;;;;;;;;;;;;;;;22.26;35.85;100934.00;5330417;26;32594;-91
2021/06/04 00:35:10;;;;;;;;;;;;;;;21.95;36.41;100939.38;5330589;26;32891;-92
2021/06/04 00:37:39;;;;;;;;;;;;;;;21.92;36.35;100928.91;5331208;26;33069;-92
2021/06/04 00:40:12;;;;;;;;;;;;;;;21.25;37.65;100926.59;5330718;26;32723;-91
2021/06/04 00:42:40;;;;;;;;;;;;;;;22.13;36.07;100924.13;5312322;26;32168;-90
2021/06/04 00:45:11;;;;;;;;;;;;;;;22.55;35.22;100929.56;5349966;26;34473;-91
2021/06/04 00:47:41;;;;;;;;;;;;;;;22.07;36.17;100931.59;5349230;26;32686;-90
2021/06/04 00:50:11;;;;;;;;;;;;;;;21.57;37.04;100929.22;5330940;26;33962;-91
2021/06/04 00:52:38;;;;;;;;;;;;;;;22.24;35.63;100918.16;5330809;26;31968;-91
2021/06/04 00:55:09;;;;;;;;;;;;;;;22.07;35.71;100929.81;5330477;26;33129;-92
2021/06/04 00:57:37;;;;;;;;;;;;;;;21.99;35.71;100932.94;5330490;26;32762;-91
2021/06/04 01:00:08;;;;;;;;;;;;;;;22.05;35.75;100930.84;5331170;26;34215;-92
2021/06/04 01:02:37;;;;;;;;;;;;;;;22.39;35.16;100934.12;5330702;26;33030;-91
2021/06/04 01:05:08;;;;;;;;;;;;;;;22.28;35.36;100929.44;5348708;26;33959;-90
2021/06/04 01:08:03;;;;;;;;;;;;;;;21.52;37.01;100928.59;5330584;26;33955;-92
2021/06/04 01:10:35;;;;;;;;;;;;;;;21.73;36.54;100925.66;5345951;26;33209;-90
2021/06/04 01:13:04;;;;;;;;;;;;;;;21.99;35.95;100926.75;5367617;26;33471;-91
2021/06/04 01:15:46;;;;;;;;;;;;;;;21.66;36.85;100920.72;5348696;26;33415;-91
2021/06/04 01:18:33;;;;;;;;;;;;;;;20.99;38.19;100917.44;5330323;26;32556;-90
2021/06/04 01:21:04;;;;;;;;;;;;;;;20.39;39.82;100924.19;5367341;26;33586;-90
2021/06/04 01:23:47;;;;;;;;;;;;;;;21.06;38.47;100932.09;5349622;26;33295;-90
2021/06/04 01:26:20;;;;;;;;;;;;;;;20.99;38.59;100925.41;5330463;26;33732;-92
2021/06/04 01:28:50;;;;;;;;;;;;;;;21.38;37.64;100933.81;5312003;26;33063;-90
2021/06/04 01:31:24;;;;;;;;;;;;;;;21.21;37.87;100930.34;5330533;26;32814;-90
2021/06/04 01:34:03;;;;;;;;;;;;;;;20.84;38.72;100924.47;5348578;26;32116;-90
2021/06/04 01:36:35;;;;;;;;;;;;;;;21.06;38.35;100920.59;5330611;26;33314;-90
2021/06/04 01:39:11;;;;;;;;;;;;;;;21.13;38.22;100917.53;5312554;26;34235;-90
2021/06/04 01:41:40;;;;;;;;;;;;;;;21.21;38.11;100918.87;5349854;26;33640;-90
2021/06/04 01:44:11;;;;;;;;;;;;;;;21.75;37.25;100923.75;5331265;26;32329;-92
2021/06/04 01:46:40;;;;;;;;;;;;;;;22.18;36.21;100922.03;5349593;26;32928;-91
2021/06/04 01:49:15;;;;;;;;;;;;;;;21.51;37.26;100921.56;5331715;26;33441;-92
2021/06/04 01:51:48;;;;;;;;;;;;;;;21.33;37.66;100920.84;5349389;26;33936;-90
2021/06/04 01:54:20;;;;;;;;;;;;;;;21.44;37.50;100918.41;5331643;26;33429;-91
2021/06/04 01:56:50;;;;;;;;;;;;;;;21.27;37.85;100913.25;5331609;26;32966;-92
2021/06/04 01:59:23;;;;;;;;;;;;;;;21.43;37.37;100914.09;5331515;26;33328;-91
2021/06/04 02:01:52;;;;;;;;;;;;;;;21.14;37.95;100907.78;5350101;26;34305;-90
2021/06/04 02:04:25;;;;;;;;;;;;;;;20.75;38.80;100917.88;5349430;26;32482;-91
2021/06/04 02:06:53;;;;;;;;;;;;;;;21.38;37.39;100913.50;5349856;26;34036;-91
2021/06/04 02:09:22;;;;;;;;;;;;;;;21.23;37.72;100917.00;5349218;26;34496;-91
2021/06/04 02:11:51;;;;;;;;;;;;;;;21.56;37.01;100926.66;5331489;26;33986;-90
2021/06/04 02:14:28;;;;;;;;;;;;;;;21.31;37.40;100922.72;5331454;26;32184;-91
2021/06/04 02:16:57;;;;;;;;;;;;;;;21.82;36.42;100919.81;5331450;26;33959;-92
2021/06/04 02:19:38;;;;;;;;;;;;;;;22.08;35.99;100928.00;5349232;26;34354;-92
2021/06/04 02:22:21;;;;;;;;;;;;;;;21.60;37.29;100926.38;5331296;26;33019;-91
2021/06/04 02:24:59;;;;;;;;;;;;;;;21.91;36.55;100927.22;5331465;26;33486;-92
2021/06/04 02:27:27;;;;;;;;;;;;;;;21.39;37.47;100919.63;5349263;26;32967;-90
2021/06/04 02:29:58;;;;;;;;;;;;;;;21.94;36.34;100927.03;5349954;26;33591;-92
2021/06/04 02:32:41;;;;;;;;;;;;;;;21.66;36.82;100920.72;5314147;26;33172;-89
2021/06/04 02:35:12;;;;;;;;;;;;;;;21.76;36.69;100922.81;5331293;26;32274;-91
2021/06/04 02:37:48;;;;;;;;;;;;;;;21.78;36.46;100926.25;5367712;26;33724;-91
2021/06/04 02:40:19;;;;;;;;;;;;;;;21.55;36.90;100925.78;5349244;26;33243;-90
2021/06/04 02:42:48;;;;;;;;;;;;;;;21.17;37.65;100926.19;5331045;26;33834;-89
2021/06/04 02:45:21;;;;;;;;;;;;;;;20.46;39.30;100930.00;5331600;26;32034;-90
2021/06/04 02:47:51;;;;;;;;;;;;;;;21.33;37.39;100927.00;5349355;26;32971;-91
2021/06/04 02:50:32;;;;;;;;;;;;;;;21.44;37.00;100922.88;5349990;26;34870;-91
2021/06/04 02:53:13;;;;;;;;;;;;;;;21.68;36.54;100920.63;5367539;26;33722;-91
2021/06/04 02:55:44;;;;;;;;;;;;;;;21.54;36.94;100931.19;5330796;26;32989;-92
2021/06/04 02:58:13;;;;;;;;;;;;;;;21.78;36.53;100926.25;5349573;26;33826;-92
2021/06/04 03:00:42;;;;;;;;;;;;;;;21.94;36.32;100935.00;5331020;26;33062;-91
2021/06/04 03:03:12;;;;;;;;;;;;;;;21.97;36.15;100937.47;5331617;26;33835;-90
2021/06/04 03:05:41;;;;;;;;;;;;;;;21.65;36.42;100940.22;5330731;26;31662;-91
2021/06/04 03:08:09;;;;;;;;;;;;;;;21.22;37.31;100933.84;5331315;26;33651;-91
2021/06/04 03:10:42;;;;;;;;;;;;;;;21.07;37.73;100947.00;5330940;26;33187;-91
2021/06/04 03:13:16;;;;;;;;;;;;;;;21.40;37.25;100945.22;5331264;26;33024;-89
2021/06/04 03:15:47;;;;;;;;;;;;;;;20.80;38.63;100944.12;5349645;26;33248;-90
2021/06/04 03:18:20;;;;;;;;;;;;;;;20.84;38.42;100950.94;5331840;26;33996;-90
2021/06/04 03:20:48;;;;;;;;;;;;;;;20.56;39.20;100955.06;5330997;26;33049;-92
2021/06/04 03:23:19;;;;;;;;;;;;;;;21.06;38.26;100944.47;5330987;26;32859;-92
2021/06/04 03:25:50;;;;;;;;;;;;;;;21.27;37.76;100959.16;5313301;26;33353;-90
2021/06/04 03:28:19;;;;;;;;;;;;;;;20.88;38.79;100955.13;5330885;26;33824;-91
2021/06/04 03:30:47;;;;;;;;;;;;;;;20.72;39.26;100959.56;5331043;26;34474;-90
2021/06/04 03:33:18;;;;;;;;;;;;;;;20.55;39.66;100956.00;5331266;26;33050;-91
2021/06/04 03:35:47;;;;;;;;;;;;;;;21.51;37.69;100961.34;5331430;26;32418;-90
2021/06/04 03:38:16;;;;;;;;;;;;;;;21.31;37.92;100962.47;5331366;26;33856;-91
2021/06/04 03:40:45;;;;;;;;;;;;;;;21.05;38.35;100967.47;5313172;26;32856;-91
2021/06/04 03:43:14;;;;;;;;;;;;;;;21.00;38.59;100962.41;5330753;26;34424;-90
2021/06/04 03:45:42;;;;;;;;;;;;;;;21.33;37.86;100972.06;5330850;26;32457;-92
2021/06/04 03:48:13;;;;;;;;;;;;;;;21.64;37.18;100961.53;5349012;26;33096;-92
2021/06/04 03:50:41;;;;;;;;;;;;;;;21.89;36.66;100966.25;5349474;26;35030;-90
2021/06/04 03:53:09;;;;;;;;;;;;;;;21.47;37.61;100971.28;5330936;26;32828;-92
2021/06/04 03:55:37;;;;;;;;;;;;;;;21.56;37.55;100974.38;5330949;26;33439;-91
2021/06/04 03:58:05;;;;;;;;;;;;;;;21.80;37.11;100972.94;5330789;26;33902;-90
2021/06/04 04:00:35;;;;;;;;;;;;;;;21.99;36.90;100970.06;5349682;26;33361;-92
2021/06/04 04:03:03;;;;;;;;;;;;;;;22.26;36.27;100974.66;5349513;26;32879;-92
2021/06/04 04:05:31;;;;;;;;;;;;;;;22.05;37.05;100975.97;5330762;26;32354;-89
2021/06/04 04:07:59;;;;;;;;;;;;;;;22.13;36.99;100981.66;5349183;26;33964;-90
2021/06/04 04:10:27;;;;;;;;;;;;;;;21.84;37.51;100974.50;5331059;26;32888;-91
2021/06/04 04:12:55;;;;;;;;;;;;;;;22.17;36.77;100978.72;5349645;26;33418;-91
2021/06/04 04:15:24;;;;;;;;;;;;;;;22.09;36.95;100980.97;5349041;26;33517;-91
2021/06/04 04:17:54;;;;;;;;;;;;;;;22.36;36.41;100985.59;5368440;26;34006;-89
2021/06/04 04:20:25;;;;;;;;;;;;;;;22.06;37.55;100982.94;5331731;26;33343;-92
2021/06/04 04:22:52;;;;;;;;;;;;;;;22.13;37.57;100982.50;5332322;26;32668;-90
2021/06/04 04:25:22;;;;;;;;;;;;;;;22.06;37.84;100978.53;5333299;26;33132;-90
2021/06/04 04:27:49;;;;;;;;;;;;;;;22.13;37.92;100979.84;5332268;26;34581;-90
2021/06/04 04:30:18;;;;;;;;;;;;;;;22.38;37.37;100980.19;5331022;26;34605;-90
2021/06/04 04:32:45;;;;;;;;;;;;;;;22.05;38.14;100982.13;5331526;26;33032;-89
2021/06/04 04:35:18;;;;;;;;;;;;;;;22.49;37.50;100975.09;5331106;26;33616;-90
2021/06/04 04:37:47;;;;;;;;;;;;;;;22.57;37.59;100975.47;5331051;26;33207;-89
2021/06/04 04:40:15;;;;;;;;;;;;;;;22.59;37.68;100975.38;5330666;26;33020;-90
2021/06/04 04:42:43;;;;;;;;;;;;;;;22.61;37.81;100979.63;5331781;26;32904;-91
2021/06/04 04:45:12;;;;;;;;;;;;;;;22.97;37.40;100994.22;5330993;26;31679;-89
2021/06/04 04:47:40;;;;;;;;;;;;;;;22.59;38.29;100984.22;5349295;26;32943;-90
2021/06/04 04:50:09;;;;;;;;;;;;;;;22.23;39.17;100987.25;5350146;26;34033;-91
2021/06/04 04:52:37;;;;;;;;;;;;;;;22.59;38.34;100988.66;5314564;26;32948;-91
2021/06/04 04:55:06;;;;;;;;;;;;;;;22.12;39.26;100988.75;5347758;26;32487;-91
2021/06/04 04:57:33;;;;;;;;;;;;;;;22.71;38.11;100990.56;5349375;26;34082;-91
2021/06/04 05:00:04;;;;;;;;;;;;;;;22.86;37.71;100986.09;5348547;26;33257;-91
2021/06/04 05:02:32;;;;;;;;;;;;;;;22.56;38.31;100988.84;5349871;26;34073;-91
2021/06/04 05:05:00;;;;;;;;;;;;;;;22.71;37.67;100985.25;5345408;26;33149;-92
2021/06/04 05:07:33;;;;;;;;;;;;;;;22.97;37.20;100988.91;5342965;26;34295;-91
2021/06/04 05:10:01;;;;;;;;;;;;;;;23.33;36.61;100989.34;5356598;26;33740;-90
2021/06/04 05:12:29;;;;;;;;;;;;;;;23.29;36.86;100996.66;5334104;26;33160;-91
2021/06/04 05:14:58;;;;;;;;;;;;;;;22.83;38.06;100997.75;5334249;26;33024;-91
2021/06/04 05:17:27;;;;;;;;;;;;;;;23.19;37.55;101000.88;5332721;26;32836;-91
2021/06/04 05:19:57;;;;;;;;;;;;;;;23.80;36.50;100996.00;5331247;26;32683;-91
2021/06/04 05:22:24;;;;;;;;;;;;;;;23.58;37.03;100995.72;5331392;26;33583;-92
2021/06/04 05:24:53;;;;;;;;;;;;;;;23.77;36.64;100992.69;5331506;26;33372;-90
2021/06/04 05:27:21;;;;;;;;;;;;;;;23.62;36.79;100998.06;5332747;26;32639;-91
2021/06/04 05:29:49;;;;;;;;;;;;;;;23.74;36.48;100995.56;5331420;26;33905;-91
2021/06/04 05:32:17;;;;;;;;;;;;;;;24.23;35.34;100991.44;5332140;26;33053;-92
2021/06/04 05:34:49;;;;;;;;;;;;;;;24.57;34.83;100997.06;5336395;26;32401;-92
2021/06/04 05:37:19;;;;;;;;;;;;;;;24.64;34.84;100990.38;5335919;26;32802;-91
2021/06/04 05:39:48;;;;;;;;;;;;;;;25.13;33.98;100996.69;5353489;26;33255;-91
2021/06/04 05:42:16;;;;;;;;;;;;;;;25.22;33.60;100990.66;5352727;26;34090;-91
2021/06/04 05:44:47;;;;;;;;;;;;;;;25.24;33.38;100985.25;5331722;26;32560;-93
2021/06/04 05:47:16;;;;;;;;;;;;;;;25.61;32.63;100986.06;5351723;26;33416;-93
2021/06/04 05:49:46;;;;;;;;;;;;;;;25.49;32.24;100987.81;5331763;26;33076;-91
2021/06/04 05:52:15;;;;;;;;;;;;;;;25.68;31.79;100992.63;5350171;26;34063;-91
2021/06/04 05:54:45;;;;;;;;;;;;;;;26.04;31.15;100994.50;5351410;26;33181;-91
2021/06/04 05:57:13;;;;;;;;;;;;;;;25.80;31.40;100998.03;5331844;26;34098;-90
2021/06/04 05:59:41;;;;;;;;;;;;;;;25.75;31.34;100992.16;5349285;26;33096;-89
2021/06/04 06:02:09;;;;;;;;;;;;;;;26.40;30.41;100998.78;5367961;26;33929;-88
2021/06/04 06:04:37;;;;;;;;;;;;;;;26.60;30.09;100994.53;5330956;26;33170;-91
2021/06/04 06:07:09;;;;;;;;;;;;;;;27.04;29.18;100989.31;5333446;26;33279;-91
2021/06/04 06:09:38;;;;;;;;;;;;;;;26.77;29.56;100997.75;5350438;26;33175;-90
2021/06/04 06:12:06;;;;;;;;;;;;;;;27.19;29.16;101000.63;5331001;26;33250;-92
2021/06/04 06:14:36;;;;;;;;;;;;;;;27.42;29.00;100996.06;5331996;26;32853;-92
2021/06/04 06:17:04;;;;;;;;;;;;;;;27.23;28.91;101003.88;5333029;26;33118;-92
2021/06/04 06:19:42;;;;;;;;;;;;;;;27.18;28.43;101004.25;5353412;26;33203;-92
2021/06/04 06:22:12;;;;;;;;;;;;;;;27.09;28.82;101002.34;5329876;26;32817;-89
2021/06/04 06:24:39;;;;;;;;;;;;;;;26.99;29.45;101005.75;5333293;26;32233;-91
2021/06/04 06:27:07;;;;;;;;;;;;;;;27.12;29.60;100999.41;5327937;26;34021;-91
2021/06/04 06:29:37;;;;;;;;;;;;;;;27.76;28.65;100992.41;5331389;26;33702;-90
2021/06/04 06:32:07;;;;;;;;;;;;;;;28.06;28.45;101004.22;5349437;26;34478;-89
2021/06/04 06:34:35;;;;;;;;;;;;;;;28.23;28.52;101003.63;5367538;26;33926;-90
2021/06/04 06:37:03;;;;;;;;;;;;;;;28.32;26.71;100997.47;5330334;26;33028;-90
2021/06/04 06:39:32;;;;;;;;;;;;;;;28.00;26.71;100998.38;5330321;26;33123;-90
2021/06/04 06:42:00;;;;;;;;;;;;;;;28.50;25.21;101000.38;5349690;26;32881;-90
2021/06/04 06:44:30;;;;;;;;;;;;;;;28.31;26.45;101003.81;5355294;26;32815;-91
2021/06/04 06:46:58;;;;;;;;;;;;;;;27.79;26.46;101002.87;5359107;26;32870;-89
2021/06/04 06:49:25;;;;;;;;;;;;;;;28.94;24.71;100997.47;5355876;26;34810;-90
2021/06/04 06:51:54;;;;;;;;;;;;;;;29.33;24.55;100999.41;5352091;26;35150;-90
2021/06/04 06:54:23;;;;;;;;;;;;;;;29.81;24.02;101000.44;5350008;26;33006;-90
2021/06/04 06:56:51;;;;;;;;;;;;;;;29.46;24.77;101005.38;5371203;26;34054;-89
2021/06/04 06:59:20;;;;;;;;;;;;;;;29.83;24.46;100999.28;5358725;26;34420;-90
2021/06/04 07:01:48;;;;;;;;;;;;;;;30.13;24.14;101002.81;5343537;26;33569;-92
2021/06/04 07:04:16;;;;;;;;;;;;;;;29.68;24.81;101003.41;5338291;26;33169;-89
2021/06/04 07:06:44;;;;;;;;;;;;;;;29.67;24.93;100996.34;5354583;26;34259;-91
2021/06/04 07:09:13;;;;;;;;;;;;;;;30.24;24.27;100999.13;5337850;26;32829;-89
2021/06/04 07:11:43;;;;;;;;;;;;;;;30.55;24.00;100998.91;5352965;26;33567;-91
2021/06/04 07:14:11;;;;;;;;;;;;;;;29.85;25.02;100991.09;5350059;26;33166;-90
2021/06/04 07:16:39;;;;;;;;;;;;;;;29.42;25.72;100997.75;5331360;26;33063;-90
2021/06/04 07:19:08;;;;;;;;;;;;;;;30.05;24.87;101005.38;5330629;26;33961;-91
2021/06/04 07:21:36;;;;;;;;;;;;;;;30.75;23.86;101004.19;5331009;26;32986;-91
2021/06/04 07:24:04;;;;;;;;;;;;;;;30.44;24.31;100999.06;5349132;26;31986;-91
2021/06/04 07:26:32;;;;;;;;;;;;;;;31.07;23.48;101003.78;5330066;26;33406;-90
2021/06/04 07:29:01;;;;;;;;;;;;;;;31.21;23.40;100998.88;5330174;26;33418;-90
2021/06/04 07:31:30;;;;;;;;;;;;;;;30.82;23.68;100999.94;5350850;26;33040;-90
2021/06/04 07:34:02;;;;;;;;;;;;;;;31.03;23.17;101002.34;5356153;26;33387;-91
2021/06/04 07:36:41;;;;;;;;;;;;;;;31.16;22.26;101002.03;5383122;26;35420;-90
2021/06/04 07:39:10;;;;;;;;;;;;;;;31.12;21.85;101001.47;5340112;26;32745;-91
2021/06/04 07:41:39;;;;;;;;;;;;;;;29.51;23.13;101002.28;5343988;26;32494;-92
2021/06/04 07:44:06;;;;;;;;;;;;;;;28.93;22.84;100992.25;5343496;26;32028;-92
2021/06/04 07:46:34;;;;;;;;;;;;;;;28.15;23.21;101000.78;5342296;26;32871;-91
2021/06/04 07:49:03;;;;;;;;;;;;;;;28.21;22.73;101000.22;5343271;26;33293;-91
2021/06/04 07:51:32;;;;;;;;;;;;;;;27.83;22.71;100998.97;5341207;26;32991;-91
2021/06/04 07:53:59;;;;;;;;;;;;;;;27.82;23.54;100995.41;5360829;26;33986;-91
2021/06/04 07:56:27;;;;;;;;;;;;;;;27.93;23.50;100999.87;5376476;26;34135;-90
2021/06/04 07:58:55;;;;;;;;;;;;;;;27.59;23.68;101007.19;5332353;26;33436;-90
2021/06/04 08:01:22;;;;;;;;;;;;;;;29.01;21.97;101003.13;5349446;26;34605;-91
2021/06/04 08:03:50;;;;;;;;;;;;;;;29.09;21.33;100997.97;5331996;26;32172;-91
2021/06/04 08:06:18;;;;;;;;;;;;;;;28.82;21.49;101007.44;5371351;26;33668;-90
2021/06/04 08:08:45;;;;;;;;;;;;;;;28.78;21.49;101011.41;5339912;26;33260;-89
2021/06/04 08:11:18;;;;;;;;;;;;;;;29.25;20.95;101005.47;5350970;26;33797;-91
2021/06/04 08:13:46;;;;;;;;;;;;;;;30.03;20.29;101003.84;5331594;26;33081;-92
2021/06/04 08:16:18;;;;;;;;;;;;;;;30.03;20.29;101007.34;5333773;26;33877;-91
2021/06/04 08:18:46;;;;;;;;;;;;;;;28.75;21.88;101006.31;5336834;26;33066;-92
2021/06/04 08:21:16;;;;;;;;;;;;;;;29.98;20.77;101013.19;5334377;26;33048;-91
2021/06/04 08:23:49;;;;;;;;;;;;;;;30.40;19.79;101005.72;5336883;26;32221;-91
2021/06/04 08:26:18;;;;;;;;;;;;;;;30.39;20.33;101006.72;5350351;26;33031;-91
2021/06/04 08:28:49;;;;;;;;;;;;;;;30.04;20.33;101006.37;5331635;26;34384;-91
2021/06/04 08:31:26;;;;;;;;;;;;;;;30.50;19.84;101003.88;5352345;26;34055;-91
2021/06/04 08:33:54;;;;;;;;;;;;;;;30.51;20.02;101002.87;5330565;26;32111;-90
2021/06/04 08:36:25;;;;;;;;;;;;;;;29.05;21.50;101006.41;5312798;26;32523;-90
2021/06/04 08:38:56;;;;;;;;;;;;;;;30.03;20.37;101006.53;5330751;26;32803;-90
2021/06/04 08:41:38;;;;;;;;;;;;;;;30.01;20.76;101003.97;5350652;26;34169;-94
2021/06/04 08:44:21;;;;;;;;;;;;;;;29.41;21.46;100998.72;5352351;26;32364;-92
2021/06/04 08:46:56;;;;;;;;;;;;;;;30.13;21.08;101005.50;5374125;26;34202;-93
2021/06/04 08:49:28;;;;;;;;;;;;;;;30.28;21.09;101010.44;5339764;26;33226;-92
2021/06/04 08:52:13;;;;;;;;;;;;;;;30.76;20.46;100998.66;5337503;26;32484;-92
2021/06/04 09:01:16;;;;;;;;;;;;;;;30.31;21.35;100991.31;5312295;26;35796;-91
2021/06/04 09:03:46;;;;;;;;;;;;;;;30.70;20.24;100999.28;5345096;26;33755;-91
2021/06/04 09:06:21;;;;;;;;;;;;;;;31.06;20.43;100990.47;5344755;26;32574;-92
2021/06/04 09:08:49;;;;;;;;;;;;;;;31.60;19.96;100988.66;5346277;26;32764;-94
2021/06/04 09:23:44;;;;;;;;;;;;;;;30.84;20.97;100986.34;5373792;26;32732;-95
2021/06/04 09:29:45;;;;;;;;;;;;;;;30.91;20.74;100976.66;5242599;27;19969;-94
2021/06/04 09:33:10;;;;;;;;;;;;;;;31.86;19.31;100984.31;5130473;27;20586;-94
2021/06/04 09:50:29;;;;;;;;;;;;;;;30.98;20.59;100967.81;5273637;26;21005;-90
2021/06/04 09:53:19;;;;;;;;;;;;;;;32.48;18.89;100962.66;5305729;27;31909;-94
2021/06/04 09:55:51;;;;;;;;;;;;;;;33.40;18.03;100956.56;5329316;27;32961;-95
2021/06/04 09:58:46;;;;;;;;;;;;;;;33.46;17.74;100955.91;5335934;26;33209;-93
2021/06/04 10:01:16;;;;;;;;;;;;;;;32.86;18.13;100944.31;5336353;26;32973;-92
2021/06/04 10:03:46;;;;;;;;;;;;;;;33.08;18.09;100953.62;5307047;26;32560;-93
2021/06/04 10:07:04;;;;;;;;;;;;;;;33.02;18.01;100954.28;5014662;27;7335062;-94
2021/06/04 10:10:26;;;;;;;;;;;;;;;33.25;17.72;100948.25;5344449;26;19996;-94
2021/06/04 10:13:34;;;;;;;;;;;;;;;33.64;17.47;100953.03;5299181;26;20049;-94
2021/06/04 10:19:49;;;;;;;;;;;;;;;32.49;18.37;100950.03;5301254;27;19988;-95
2021/06/04 10:23:06;;;;;;;;;;;;;;;32.28;18.85;100951.28;5247529;27;20010;-94
2021/06/04 10:26:17;;;;;;;;;;;;;;;33.35;17.81;100945.44;5213542;27;33377;-94
2021/06/04 10:29:25;;;;;;;;;;;;;;;33.63;17.37;100946.78;5227251;27;32621;-94
2021/06/04 10:32:20;;;;;;;;;;;;;;;33.36;17.29;100945.28;5251070;27;33009;-91
2021/06/04 10:34:50;;;;;;;;;;;;;;;32.90;17.66;100939.44;5283458;27;33225;-94
2021/06/04 10:38:03;;;;;;;;;;;;;;;33.02;17.35;100942.66;5274193;27;32615;-95
2021/06/04 10:40:39;;;;;;;;;;;;;;;32.34;17.73;100941.72;5264529;27;33377;-94
2021/06/04 10:43:09;;;;;;;;;;;;;;;32.99;17.10;100938.44;5276900;27;32442;-94
2021/06/04 10:45:40;;;;;;;;;;;;;;;33.48;16.62;100937.69;5318501;27;33174;-93
2021/06/04 10:48:28;;;;;;;;;;;;;;;32.75;17.61;100931.13;5303832;27;33274;-93
2021/06/04 10:51:01;;;;;;;;;;;;;;;31.97;18.91;100938.28;5301980;27;32637;-94
2021/06/04 10:53:29;;;;;;;;;;;;;;;32.88;17.42;100918.00;5299476;27;32996;-93
2021/06/04 10:56:01;;;;;;;;;;;;;;;33.58;16.01;100924.81;5300384;27;34153;-94
2021/06/04 10:58:36;;;;;;;;;;;;;;;34.48;15.06;100928.37;5298945;27;33078;-95
2021/06/04 11:01:06;;;;;;;;;;;;;;;34.39;15.71;100922.16;5281223;27;32784;-95
2021/06/04 11:03:40;;;;;;;;;;;;;;;34.68;15.06;100917.97;5264382;27;33231;-93
2021/06/04 11:06:18;;;;;;;;;;;;;;;34.22;15.51;100913.22;5280944;27;32951;-94
2021/06/04 11:08:49;;;;;;;;;;;;;;;34.22;16.14;100915.09;5298856;27;32995;-95
2021/06/04 11:11:43;;;;;;;;;;;;;;;34.61;15.95;100907.00;5298831;27;33921;-94
2021/06/04 11:14:23;;;;;;;;;;;;;;;34.43;16.25;100904.56;5261683;27;32158;-95
2021/06/04 11:16:51;;;;;;;;;;;;;;;35.16;15.62;100908.91;5310958;27;34050;-94
2021/06/04 11:19:22;;;;;;;;;;;;;;;34.26;16.07;100901.06;5305227;27;34521;-93
2021/06/04 11:21:51;;;;;;;;;;;;;;;34.84;15.58;100895.41;5301591;27;32895;-94
2021/06/04 11:24:32;;;;;;;;;;;;;;;35.37;15.34;100905.50;5301905;26;33301;-94
2021/06/04 11:27:01;;;;;;;;;;;;;;;34.65;15.95;100893.97;5281399;27;33116;-93
2021/06/04 11:36:14;;;;;;;;;;;;;;;34.51;16.01;100900.97;5279959;26;19977;-93
2021/06/04 11:38:48;;;;;;;;;;;;;;;34.07;15.88;100893.34;5301463;27;34076;-92
2021/06/04 11:41:54;;;;;;;;;;;;;;;34.43;14.91;100892.91;5228588;27;19963;-92
2021/06/04 11:44:50;;;;;;;;;;;;;;;35.21;14.54;100885.66;5323280;27;35361;-92
2021/06/04 11:47:18;;;;;;;;;;;;;;;34.19;15.10;100886.53;5303650;27;33784;-93
2021/06/04 11:49:55;;;;;;;;;;;;;;;33.65;15.52;100878.22;5319596;27;34123;-91
2021/06/04 11:52:28;;;;;;;;;;;;;;;34.71;14.71;100873.47;5307034;27;33552;-94
2021/06/04 11:55:17;;;;;;;;;;;;;;;34.55;14.78;100869.84;5284036;27;32819;-93
2021/06/04 11:57:46;;;;;;;;;;;;;;;34.61;14.82;100873.69;5262112;27;32561;-92
2021/06/04 12:00:28;;;;;;;;;;;;;;;34.55;15.13;100869.84;5279231;27;32759;-93
2021/06/04 12:03:03;;;;;;;;;;;;;;;34.71;15.10;100862.66;5285048;27;33108;-94
2021/06/04 12:05:31;;;;;;;;;;;;;;;34.39;15.13;100856.41;5283894;27;32902;-93
2021/06/04 12:08:11;;;;;;;;;;;;;;;32.64;16.50;100860.25;5301894;27;31910;-93
2021/06/04 12:10:49;;;;;;;;;;;;;;;32.39;16.82;100855.78;5283809;27;33199;-94
2021/06/04 12:13:33;;;;;;;;;;;;;;;33.46;15.94;100854.09;5324618;26;33008;-95
2021/06/04 12:24:33;;;;;;;;;;;;;;;;;;;;;
2021/06/04 13:05:26;;;;;;;;;;;;;;;36.60;13.16;100825.50;5286019;26;1873573;-94
2021/06/04 13:08:34;;;;;;;;;;;;;;;36.19;13.42;100830.63;5309954;26;32783;-95
2021/06/04 13:11:04;;;;;;;;;;;;;;;36.17;13.35;100822.69;5299775;26;32767;-96
2021/06/04 13:13:55;;;;;;;;;;;;;;;36.29;13.19;100823.03;5307366;26;33574;-95
2021/06/04 13:16:43;;;;;;;;;;;;;;;36.52;12.92;100824.78;5305578;26;32815;-93
2021/06/04 13:19:31;;;;;;;;;;;;;;;36.55;12.80;100819.81;5298871;26;32738;-95
2021/06/04 13:22:17;;;;;;;;;;;;;;;37.00;12.59;100807.94;5304019;26;33532;-94
2021/06/04 13:24:46;;;;;;;;;;;;;;;37.19;12.46;100812.69;5300387;26;33175;-94
2021/06/04 13:27:18;;;;;;;;;;;;;;;36.54;12.73;100810.00;5299921;26;32667;-93
2021/06/04 13:29:53;;;;;;;;;;;;;;;37.19;12.40;100809.97;5306137;26;32229;-93
2021/06/04 13:32:45;;;;;;;;;;;;;;;36.51;12.90;100812.25;5331701;26;32961;-94
2021/06/04 13:35:39;;;;;;;;;;;;;;;37.06;12.49;100802.56;5333016;26;34118;-94
2021/06/04 13:38:11;;;;;;;;;;;;;;;37.52;12.20;100801.25;5305177;26;33741;-95
2021/06/04 13:40:44;;;;;;;;;;;;;;;36.43;12.71;100799.63;5305371;26;31923;-95
2021/06/04 13:43:53;;;;;;;;;;;;;;;36.06;12.82;100796.91;5315044;26;33168;-95
2021/06/04 13:46:40;;;;;;;;;;;;;;;36.10;12.89;100792.78;5304470;26;33380;-94
2021/06/04 13:49:09;;;;;;;;;;;;;;;34.66;14.15;100795.53;5294633;27;32942;-92
2021/06/04 13:51:51;;;;;;;;;;;;;;;35.42;13.66;100797.44;5277012;27;32178;-94
2021/06/04 13:54:30;;;;;;;;;;;;;;;35.17;13.95;100797.69;5309105;27;34312;-92
2021/06/04 13:57:10;;;;;;;;;;;;;;;34.01;14.42;100789.47;5291468;27;35117;-91
2021/06/04 14:00:17;;;;;;;;;;;;;;;33.85;13.98;100792.22;5299629;27;32725;-95
2021/06/04 14:06:47;;;;;;;;;;;;;;;33.51;14.52;100786.06;5304576;27;32863;-95
2021/06/04 14:10:16;;;;;;;;;;;;;;;34.42;13.88;100778.47;5251694;27;20025;-88
2021/06/04 14:12:45;;;;;;;;;;;;;;;34.01;14.60;100783.22;5274846;27;34568;-88
2021/06/04 14:15:30;;;;;;;;;;;;;;;35.15;13.41;100774.50;5256377;27;32657;-88
2021/06/04 14:18:26;;;;;;;;;;;;;;;35.82;12.90;100776.34;5256337;27;32362;-89
2021/06/04 14:21:19;;;;;;;;;;;;;;;36.10;13.07;100770.25;5238943;27;33011;-89
2021/06/04 14:23:59;;;;;;;;;;;;;;;35.94;13.18;100766.72;5239580;27;34096;-88
2021/06/04 14:26:38;;;;;;;;;;;;;;;36.06;13.11;100766.22;5236670;27;32619;-89
2021/06/04 14:29:12;;;;;;;;;;;;;;;36.06;13.02;100769.78;5238874;27;35094;-87
2021/06/04 14:31:48;;;;;;;;;;;;;;;36.54;12.45;100772.00;5240263;27;34369;-88
2021/06/04 14:34:29;;;;;;;;;;;;;;;36.53;12.13;100770.31;5223629;27;33539;-89
2021/06/04 14:37:00;;;;;;;;;;;;;;;36.60;12.20;100771.22;5239630;27;32202;-88
2021/06/04 14:39:39;;;;;;;;;;;;;;;36.28;12.68;100762.50;5258628;27;34178;-88
2021/06/04 14:42:10;;;;;;;;;;;;;;;36.70;12.16;100767.34;5221353;27;33134;-87
2021/06/04 14:44:42;;;;;;;;;;;;;;;37.26;12.07;100766.56;5222841;27;33021;-88
2021/06/04 14:47:21;;;;;;;;;;;;;;;36.01;12.95;100766.78;5239601;27;33381;-88
2021/06/04 14:49:54;;;;;;;;;;;;;;;35.95;12.73;100764.84;5223351;27;36222;-88